sensor_id;sensor_type;location;lat;lon;timestamp;P1;durP1;ratioP1;P2;durP2;ratioP2
13432;SDS011;6789;47.678;9.158;2023-10-31T00:04:20;0.50;;;0.30;;
13432;SDS011;6789;47.678;9.158;2023-10-31T00:09:12;0.37;;;0.20;;
13432;SDS011;6789;47.678;9.158;2023-10-31T00:14:04;0.10;;;0.00;;
13432;SDS011;6789;47.678;9.158;2023-10-31T00:19:16;0.40;;;0.40;;
13432;SDS011;6789;47.678;9.158;2023-10-31T00:24:08;2.83;;;0.40;;
13432;SDS011;6789;47.678;9.158;2023-10-31T00:28:59;1.13;;;0.23;;
13432;SDS011;6789;47.678;9.158;2023-10-31T00:33:51;0.77;;;0.30;;
13432;SDS011;6789;47.678;9.158;2023-10-31T00:38:43;1.23;;;0.50;;
13432;SDS011;6789;47.678;9.158;2023-10-31T00:43:35;0.80;;;0.50;;
13432;SDS011;6789;47.678;9.158;2023-10-31T00:48:26;1.63;;;0.30;;
13432;SDS011;6789;47.678;9.158;2023-10-31T00:53:18;0.57;;;0.33;;
13432;SDS011;6789;47.678;9.158;2023-10-31T00:58:10;0.30;;;0.30;;
13432;SDS011;6789;47.678;9.158;2023-10-31T01:03:03;0.70;;;0.50;;
13432;SDS011;6789;47.678;9.158;2023-10-31T01:07:55;1.87;;;0.63;;
13432;SDS011;6789;47.678;9.158;2023-10-31T01:12:46;1.63;;;0.40;;
13432;SDS011;6789;47.678;9.158;2023-10-31T01:17:38;2.97;;;0.70;;
13432;SDS011;6789;47.678;9.158;2023-10-31T01:22:30;0.83;;;0.83;;
13432;SDS011;6789;47.678;9.158;2023-10-31T01:27:22;1.20;;;1.10;;
13432;SDS011;6789;47.678;9.158;2023-10-31T01:32:13;2.83;;;1.20;;
13432;SDS011;6789;47.678;9.158;2023-10-31T01:37:12;2.03;;;1.50;;
13432;SDS011;6789;47.678;9.158;2023-10-31T01:42:05;1.93;;;1.57;;
13432;SDS011;6789;47.678;9.158;2023-10-31T01:46:57;2.00;;;1.60;;
13432;SDS011;6789;47.678;9.158;2023-10-31T01:51:50;2.73;;;1.97;;
13432;SDS011;6789;47.678;9.158;2023-10-31T01:56:42;2.53;;;1.43;;
13432;SDS011;6789;47.678;9.158;2023-10-31T02:01:38;1.60;;;1.40;;
13432;SDS011;6789;47.678;9.158;2023-10-31T02:06:33;1.60;;;1.30;;
13432;SDS011;6789;47.678;9.158;2023-10-31T02:11:25;1.93;;;1.10;;
13432;SDS011;6789;47.678;9.158;2023-10-31T02:16:17;1.10;;;0.87;;
13432;SDS011;6789;47.678;9.158;2023-10-31T02:21:09;2.83;;;1.17;;
13432;SDS011;6789;47.678;9.158;2023-10-31T02:26:02;1.07;;;0.97;;
13432;SDS011;6789;47.678;9.158;2023-10-31T02:30:54;2.47;;;1.17;;
13432;SDS011;6789;47.678;9.158;2023-10-31T02:35:46;1.03;;;0.93;;
13432;SDS011;6789;47.678;9.158;2023-10-31T02:40:38;2.70;;;1.17;;
13432;SDS011;6789;47.678;9.158;2023-10-31T02:45:31;2.47;;;1.10;;
13432;SDS011;6789;47.678;9.158;2023-10-31T02:50:22;1.20;;;1.00;;
13432;SDS011;6789;47.678;9.158;2023-10-31T02:55:15;2.73;;;1.10;;
13432;SDS011;6789;47.678;9.158;2023-10-31T03:00:07;4.23;;;1.37;;
13432;SDS011;6789;47.678;9.158;2023-10-31T03:05:07;1.23;;;0.90;;
13432;SDS011;6789;47.678;9.158;2023-10-31T03:10:00;1.10;;;1.00;;
13432;SDS011;6789;47.678;9.158;2023-10-31T03:14:52;1.10;;;1.00;;
13432;SDS011;6789;47.678;9.158;2023-10-31T03:19:44;1.30;;;1.20;;
13432;SDS011;6789;47.678;9.158;2023-10-31T03:24:35;1.63;;;1.20;;
13432;SDS011;6789;47.678;9.158;2023-10-31T03:29:28;1.87;;;1.23;;
13432;SDS011;6789;47.678;9.158;2023-10-31T03:34:21;1.87;;;0.83;;
13432;SDS011;6789;47.678;9.158;2023-10-31T03:39:26;1.00;;;0.90;;
13432;SDS011;6789;47.678;9.158;2023-10-31T03:44:19;1.00;;;0.90;;
13432;SDS011;6789;47.678;9.158;2023-10-31T03:49:10;0.97;;;0.70;;
13432;SDS011;6789;47.678;9.158;2023-10-31T03:54:02;3.23;;;0.83;;
13432;SDS011;6789;47.678;9.158;2023-10-31T03:58:54;0.80;;;0.80;;
13432;SDS011;6789;47.678;9.158;2023-10-31T04:03:47;1.90;;;0.80;;
13432;SDS011;6789;47.678;9.158;2023-10-31T04:08:38;1.50;;;0.90;;
13432;SDS011;6789;47.678;9.158;2023-10-31T04:13:31;3.37;;;0.70;;
13432;SDS011;6789;47.678;9.158;2023-10-31T04:18:23;1.00;;;0.70;;
13432;SDS011;6789;47.678;9.158;2023-10-31T04:23:14;1.93;;;0.60;;
13432;SDS011;6789;47.678;9.158;2023-10-31T04:28:06;3.97;;;0.70;;
13432;SDS011;6789;47.678;9.158;2023-10-31T04:33:00;2.37;;;0.70;;
13432;SDS011;6789;47.678;9.158;2023-10-31T04:37:52;3.23;;;0.50;;
13432;SDS011;6789;47.678;9.158;2023-10-31T04:42:45;1.53;;;0.50;;
13432;SDS011;6789;47.678;9.158;2023-10-31T04:47:38;3.67;;;0.60;;
13432;SDS011;6789;47.678;9.158;2023-10-31T04:52:32;1.73;;;0.57;;
13432;SDS011;6789;47.678;9.158;2023-10-31T04:57:24;4.40;;;0.50;;
13432;SDS011;6789;47.678;9.158;2023-10-31T05:02:16;3.73;;;0.70;;
13432;SDS011;6789;47.678;9.158;2023-10-31T05:07:07;6.27;;;0.70;;
13432;SDS011;6789;47.678;9.158;2023-10-31T05:11:59;3.20;;;0.50;;
13432;SDS011;6789;47.678;9.158;2023-10-31T05:16:51;1.30;;;0.60;;
13432;SDS011;6789;47.678;9.158;2023-10-31T05:21:43;2.27;;;0.50;;
13432;SDS011;6789;47.678;9.158;2023-10-31T05:26:36;1.83;;;0.43;;
13432;SDS011;6789;47.678;9.158;2023-10-31T05:31:28;3.03;;;0.53;;
13432;SDS011;6789;47.678;9.158;2023-10-31T05:36:20;2.93;;;1.00;;
13432;SDS011;6789;47.678;9.158;2023-10-31T05:41:16;1.77;;;0.80;;
13432;SDS011;6789;47.678;9.158;2023-10-31T05:46:08;1.70;;;0.83;;
13432;SDS011;6789;47.678;9.158;2023-10-31T05:51:01;1.03;;;0.67;;
13432;SDS011;6789;47.678;9.158;2023-10-31T05:55:53;2.33;;;0.80;;
13432;SDS011;6789;47.678;9.158;2023-10-31T06:00:45;1.00;;;0.60;;
13432;SDS011;6789;47.678;9.158;2023-10-31T06:05:38;1.23;;;0.60;;
13432;SDS011;6789;47.678;9.158;2023-10-31T06:10:31;1.57;;;1.00;;
13432;SDS011;6789;47.678;9.158;2023-10-31T06:15:23;1.97;;;0.90;;
13432;SDS011;6789;47.678;9.158;2023-10-31T06:20:15;2.13;;;0.73;;
13432;SDS011;6789;47.678;9.158;2023-10-31T06:25:07;1.67;;;0.83;;
13432;SDS011;6789;47.678;9.158;2023-10-31T06:29:59;1.17;;;0.90;;
13432;SDS011;6789;47.678;9.158;2023-10-31T06:35:10;2.60;;;1.33;;
13432;SDS011;6789;47.678;9.158;2023-10-31T06:40:03;2.20;;;1.10;;
13432;SDS011;6789;47.678;9.158;2023-10-31T06:44:56;3.87;;;1.10;;
13432;SDS011;6789;47.678;9.158;2023-10-31T06:49:48;1.67;;;0.80;;
13432;SDS011;6789;47.678;9.158;2023-10-31T06:54:40;3.60;;;1.40;;
13432;SDS011;6789;47.678;9.158;2023-10-31T06:59:32;2.50;;;1.00;;
13432;SDS011;6789;47.678;9.158;2023-10-31T07:04:24;2.20;;;1.23;;
13432;SDS011;6789;47.678;9.158;2023-10-31T07:09:31;2.60;;;1.10;;
13432;SDS011;6789;47.678;9.158;2023-10-31T07:14:23;3.10;;;0.80;;
13432;SDS011;6789;47.678;9.158;2023-10-31T07:19:22;1.57;;;0.60;;
13432;SDS011;6789;47.678;9.158;2023-10-31T07:24:22;4.53;;;0.97;;
13432;SDS011;6789;47.678;9.158;2023-10-31T07:29:41;3.47;;;0.80;;
13432;SDS011;6789;47.678;9.158;2023-10-31T07:34:46;1.43;;;0.73;;
13432;SDS011;6789;47.678;9.158;2023-10-31T07:39:46;1.57;;;0.80;;
13432;SDS011;6789;47.678;9.158;2023-10-31T07:44:38;3.40;;;0.60;;
13432;SDS011;6789;47.678;9.158;2023-10-31T07:49:30;2.17;;;0.80;;
13432;SDS011;6789;47.678;9.158;2023-10-31T07:54:22;1.27;;;0.63;;
13432;SDS011;6789;47.678;9.158;2023-10-31T07:59:14;1.80;;;0.90;;
13432;SDS011;6789;47.678;9.158;2023-10-31T08:04:08;3.70;;;1.30;;
13432;SDS011;6789;47.678;9.158;2023-10-31T08:09:16;1.47;;;0.60;;
13432;SDS011;6789;47.678;9.158;2023-10-31T08:14:33;4.00;;;1.00;;
13432;SDS011;6789;47.678;9.158;2023-10-31T08:19:49;1.33;;;0.57;;
13432;SDS011;6789;47.678;9.158;2023-10-31T08:24:43;3.73;;;0.60;;
13432;SDS011;6789;47.678;9.158;2023-10-31T08:29:39;1.47;;;0.53;;
13432;SDS011;6789;47.678;9.158;2023-10-31T08:34:32;3.93;;;1.00;;
13432;SDS011;6789;47.678;9.158;2023-10-31T08:39:24;4.13;;;1.73;;
13432;SDS011;6789;47.678;9.158;2023-10-31T08:44:17;3.33;;;1.33;;
13432;SDS011;6789;47.678;9.158;2023-10-31T08:49:09;2.60;;;0.90;;
13432;SDS011;6789;47.678;9.158;2023-10-31T08:54:02;4.17;;;0.80;;
13432;SDS011;6789;47.678;9.158;2023-10-31T08:58:54;3.20;;;0.83;;
13432;SDS011;6789;47.678;9.158;2023-10-31T09:03:46;3.03;;;1.13;;
13432;SDS011;6789;47.678;9.158;2023-10-31T09:08:39;3.13;;;0.80;;
13432;SDS011;6789;47.678;9.158;2023-10-31T09:13:32;3.77;;;0.90;;
13432;SDS011;6789;47.678;9.158;2023-10-31T09:18:24;1.60;;;1.00;;
13432;SDS011;6789;47.678;9.158;2023-10-31T09:23:17;2.10;;;0.83;;
13432;SDS011;6789;47.678;9.158;2023-10-31T09:28:35;2.70;;;0.77;;
13432;SDS011;6789;47.678;9.158;2023-10-31T09:33:36;1.93;;;0.87;;
13432;SDS011;6789;47.678;9.158;2023-10-31T09:38:28;1.95;;;0.90;;
13432;SDS011;6789;47.678;9.158;2023-10-31T09:43:20;3.83;;;1.00;;
13432;SDS011;6789;47.678;9.158;2023-10-31T09:48:12;1.93;;;0.90;;
13432;SDS011;6789;47.678;9.158;2023-10-31T09:53:04;2.07;;;0.90;;
13432;SDS011;6789;47.678;9.158;2023-10-31T09:57:58;1.77;;;0.80;;
13432;SDS011;6789;47.678;9.158;2023-10-31T10:02:51;2.40;;;0.60;;
13432;SDS011;6789;47.678;9.158;2023-10-31T10:07:45;2.63;;;1.13;;
13432;SDS011;6789;47.678;9.158;2023-10-31T10:12:37;1.00;;;0.60;;
13432;SDS011;6789;47.678;9.158;2023-10-31T10:17:33;1.83;;;0.70;;
13432;SDS011;6789;47.678;9.158;2023-10-31T10:22:28;2.42;;;0.73;;
13432;SDS011;6789;47.678;9.158;2023-10-31T10:27:20;1.77;;;0.80;;
13432;SDS011;6789;47.678;9.158;2023-10-31T10:32:29;1.63;;;0.60;;
13432;SDS011;6789;47.678;9.158;2023-10-31T10:37:21;2.63;;;0.60;;
13432;SDS011;6789;47.678;9.158;2023-10-31T10:42:16;2.17;;;0.85;;
13432;SDS011;6789;47.678;9.158;2023-10-31T10:47:13;1.90;;;0.75;;
13432;SDS011;6789;47.678;9.158;2023-10-31T10:52:23;3.13;;;0.73;;
13432;SDS011;6789;47.678;9.158;2023-10-31T11:02:53;4.95;;;1.48;;
13432;SDS011;6789;47.678;9.158;2023-10-31T11:07:51;1.90;;;0.90;;
13432;SDS011;6789;47.678;9.158;2023-10-31T11:12:50;1.13;;;0.70;;
13432;SDS011;6789;47.678;9.158;2023-10-31T11:17:43;2.95;;;1.05;;
13432;SDS011;6789;47.678;9.158;2023-10-31T11:22:38;1.70;;;1.20;;
13432;SDS011;6789;47.678;9.158;2023-10-31T11:27:33;2.17;;;1.10;;
13432;SDS011;6789;47.678;9.158;2023-10-31T11:32:31;1.65;;;0.75;;
13432;SDS011;6789;47.678;9.158;2023-10-31T11:37:32;1.58;;;0.93;;
13432;SDS011;6789;47.678;9.158;2023-10-31T11:42:28;4.20;;;1.33;;
13432;SDS011;6789;47.678;9.158;2023-10-31T11:47:25;1.67;;;1.02;;
13432;SDS011;6789;47.678;9.158;2023-10-31T11:52:31;3.95;;;1.33;;
13432;SDS011;6789;47.678;9.158;2023-10-31T11:57:27;1.17;;;0.60;;
13432;SDS011;6789;47.678;9.158;2023-10-31T12:02:20;2.08;;;1.15;;
13432;SDS011;6789;47.678;9.158;2023-10-31T12:07:14;1.92;;;0.75;;
13432;SDS011;6789;47.678;9.158;2023-10-31T12:12:06;2.78;;;0.68;;
13432;SDS011;6789;47.678;9.158;2023-10-31T12:17:03;1.52;;;0.70;;
13432;SDS011;6789;47.678;9.158;2023-10-31T12:21:56;1.60;;;0.80;;
13432;SDS011;6789;47.678;9.158;2023-10-31T12:26:49;1.48;;;0.90;;
13432;SDS011;6789;47.678;9.158;2023-10-31T12:31:49;3.35;;;0.77;;
13432;SDS011;6789;47.678;9.158;2023-10-31T12:36:46;1.80;;;1.17;;
13432;SDS011;6789;47.678;9.158;2023-10-31T12:41:41;1.80;;;0.80;;
13432;SDS011;6789;47.678;9.158;2023-10-31T12:46:35;12.00;;;1.08;;
13432;SDS011;6789;47.678;9.158;2023-10-31T12:51:30;1.90;;;0.70;;
13432;SDS011;6789;47.678;9.158;2023-10-31T12:56:38;1.45;;;0.90;;
13432;SDS011;6789;47.678;9.158;2023-10-31T13:01:33;2.22;;;1.10;;
13432;SDS011;6789;47.678;9.158;2023-10-31T13:06:34;2.88;;;0.70;;
13432;SDS011;6789;47.678;9.158;2023-10-31T13:11:29;2.10;;;0.43;;
13432;SDS011;6789;47.678;9.158;2023-10-31T13:16:22;2.15;;;0.60;;
13432;SDS011;6789;47.678;9.158;2023-10-31T13:21:15;1.25;;;0.63;;
13432;SDS011;6789;47.678;9.158;2023-10-31T13:26:09;1.95;;;0.40;;
13432;SDS011;6789;47.678;9.158;2023-10-31T13:31:04;0.98;;;0.60;;
13432;SDS011;6789;47.678;9.158;2023-10-31T13:35:57;1.13;;;0.85;;
13432;SDS011;6789;47.678;9.158;2023-10-31T13:40:49;1.33;;;0.70;;
13432;SDS011;6789;47.678;9.158;2023-10-31T13:45:55;1.50;;;0.77;;
13432;SDS011;6789;47.678;9.158;2023-10-31T13:50:48;1.15;;;0.47;;
13432;SDS011;6789;47.678;9.158;2023-10-31T13:55:44;2.65;;;1.02;;
13432;SDS011;6789;47.678;9.158;2023-10-31T14:00:37;2.30;;;0.80;;
13432;SDS011;6789;47.678;9.158;2023-10-31T14:05:30;1.95;;;1.10;;
13432;SDS011;6789;47.678;9.158;2023-10-31T14:10:23;2.03;;;0.70;;
13432;SDS011;6789;47.678;9.158;2023-10-31T14:15:22;0.90;;;0.57;;
13432;SDS011;6789;47.678;9.158;2023-10-31T14:20:14;0.60;;;0.38;;
13432;SDS011;6789;47.678;9.158;2023-10-31T14:25:07;2.28;;;1.15;;
13432;SDS011;6789;47.678;9.158;2023-10-31T14:30:12;1.45;;;0.50;;
13432;SDS011;6789;47.678;9.158;2023-10-31T14:35:07;1.27;;;0.35;;
13432;SDS011;6789;47.678;9.158;2023-10-31T14:40:01;0.47;;;0.30;;
13432;SDS011;6789;47.678;9.158;2023-10-31T14:44:55;1.65;;;0.45;;
13432;SDS011;6789;47.678;9.158;2023-10-31T14:49:48;2.17;;;0.50;;
13432;SDS011;6789;47.678;9.158;2023-10-31T14:54:40;0.20;;;0.10;;
13432;SDS011;6789;47.678;9.158;2023-10-31T14:59:33;0.40;;;0.30;;
13432;SDS011;6789;47.678;9.158;2023-10-31T15:04:25;0.47;;;0.30;;
13432;SDS011;6789;47.678;9.158;2023-10-31T15:09:17;1.73;;;0.38;;
13432;SDS011;6789;47.678;9.158;2023-10-31T15:14:10;0.20;;;0.20;;
13432;SDS011;6789;47.678;9.158;2023-10-31T15:19:02;1.47;;;0.70;;
13432;SDS011;6789;47.678;9.158;2023-10-31T15:23:59;0.88;;;0.17;;
13432;SDS011;6789;47.678;9.158;2023-10-31T15:28:51;0.40;;;0.40;;
13432;SDS011;6789;47.678;9.158;2023-10-31T15:33:43;0.53;;;0.37;;
13432;SDS011;6789;47.678;9.158;2023-10-31T15:38:35;1.60;;;0.47;;
13432;SDS011;6789;47.678;9.158;2023-10-31T15:43:27;1.17;;;0.60;;
13432;SDS011;6789;47.678;9.158;2023-10-31T15:48:22;1.03;;;0.23;;
13432;SDS011;6789;47.678;9.158;2023-10-31T15:53:17;0.50;;;0.20;;
13432;SDS011;6789;47.678;9.158;2023-10-31T15:58:10;1.30;;;0.30;;
13432;SDS011;6789;47.678;9.158;2023-10-31T16:03:17;0.50;;;0.50;;
13432;SDS011;6789;47.678;9.158;2023-10-31T16:08:23;0.60;;;0.30;;
13432;SDS011;6789;47.678;9.158;2023-10-31T16:13:16;0.33;;;0.27;;
13432;SDS011;6789;47.678;9.158;2023-10-31T16:18:22;0.20;;;0.20;;
13432;SDS011;6789;47.678;9.158;2023-10-31T16:23:15;0.93;;;0.27;;
13432;SDS011;6789;47.678;9.158;2023-10-31T16:28:13;1.80;;;0.10;;
13432;SDS011;6789;47.678;9.158;2023-10-31T16:33:06;0.23;;;0.20;;
13432;SDS011;6789;47.678;9.158;2023-10-31T16:37:58;0.20;;;0.20;;
13432;SDS011;6789;47.678;9.158;2023-10-31T16:42:50;0.50;;;0.10;;
13432;SDS011;6789;47.678;9.158;2023-10-31T16:47:50;1.07;;;0.30;;
13432;SDS011;6789;47.678;9.158;2023-10-31T16:52:56;0.37;;;0.20;;
13432;SDS011;6789;47.678;9.158;2023-10-31T16:57:54;0.50;;;0.30;;
13432;SDS011;6789;47.678;9.158;2023-10-31T17:02:46;0.43;;;0.30;;
13432;SDS011;6789;47.678;9.158;2023-10-31T17:07:38;0.60;;;0.40;;
13432;SDS011;6789;47.678;9.158;2023-10-31T17:12:58;1.03;;;0.30;;
13432;SDS011;6789;47.678;9.158;2023-10-31T17:18:01;1.17;;;0.57;;
13432;SDS011;6789;47.678;9.158;2023-10-31T17:22:56;2.87;;;0.30;;
13432;SDS011;6789;47.678;9.158;2023-10-31T17:27:48;0.40;;;0.40;;
13432;SDS011;6789;47.678;9.158;2023-10-31T17:32:40;1.67;;;0.47;;
13432;SDS011;6789;47.678;9.158;2023-10-31T17:37:35;0.57;;;0.40;;
13432;SDS011;6789;47.678;9.158;2023-10-31T17:42:27;0.60;;;0.50;;
13432;SDS011;6789;47.678;9.158;2023-10-31T17:47:19;0.63;;;0.50;;
13432;SDS011;6789;47.678;9.158;2023-10-31T17:52:13;0.70;;;0.40;;
13432;SDS011;6789;47.678;9.158;2023-10-31T17:57:05;0.50;;;0.40;;
13432;SDS011;6789;47.678;9.158;2023-10-31T18:01:57;0.57;;;0.40;;
13432;SDS011;6789;47.678;9.158;2023-10-31T18:06:50;0.53;;;0.50;;
13432;SDS011;6789;47.678;9.158;2023-10-31T18:11:56;1.40;;;0.40;;
13432;SDS011;6789;47.678;9.158;2023-10-31T18:16:48;1.40;;;0.60;;
13432;SDS011;6789;47.678;9.158;2023-10-31T18:21:40;0.90;;;0.40;;
13432;SDS011;6789;47.678;9.158;2023-10-31T18:26:32;0.23;;;0.23;;
13432;SDS011;6789;47.678;9.158;2023-10-31T18:31:24;1.80;;;0.60;;
13432;SDS011;6789;47.678;9.158;2023-10-31T18:36:16;1.07;;;0.40;;
13432;SDS011;6789;47.678;9.158;2023-10-31T18:41:21;0.57;;;0.50;;
13432;SDS011;6789;47.678;9.158;2023-10-31T18:46:13;0.60;;;0.60;;
13432;SDS011;6789;47.678;9.158;2023-10-31T18:51:06;0.77;;;0.60;;
13432;SDS011;6789;47.678;9.158;2023-10-31T18:55:58;1.27;;;0.60;;
13432;SDS011;6789;47.678;9.158;2023-10-31T19:00:50;3.73;;;0.63;;
13432;SDS011;6789;47.678;9.158;2023-10-31T19:05:42;0.53;;;0.40;;
13432;SDS011;6789;47.678;9.158;2023-10-31T19:10:34;1.73;;;0.57;;
13432;SDS011;6789;47.678;9.158;2023-10-31T19:15:27;0.87;;;0.53;;
13432;SDS011;6789;47.678;9.158;2023-10-31T19:20:23;1.07;;;0.30;;
13432;SDS011;6789;47.678;9.158;2023-10-31T19:25:16;2.57;;;0.83;;
13432;SDS011;6789;47.678;9.158;2023-10-31T19:30:08;0.53;;;0.53;;
13432;SDS011;6789;47.678;9.158;2023-10-31T19:35:00;1.77;;;0.70;;
13432;SDS011;6789;47.678;9.158;2023-10-31T19:39:54;2.13;;;0.80;;
13432;SDS011;6789;47.678;9.158;2023-10-31T19:44:46;1.20;;;0.70;;
13432;SDS011;6789;47.678;9.158;2023-10-31T19:49:38;1.63;;;0.80;;
13432;SDS011;6789;47.678;9.158;2023-10-31T19:54:30;0.40;;;0.40;;
13432;SDS011;6789;47.678;9.158;2023-10-31T19:59:22;1.27;;;0.60;;
13432;SDS011;6789;47.678;9.158;2023-10-31T20:04:13;1.57;;;0.70;;
13432;SDS011;6789;47.678;9.158;2023-10-31T20:09:06;1.60;;;0.70;;
13432;SDS011;6789;47.678;9.158;2023-10-31T20:13:58;1.60;;;0.50;;
13432;SDS011;6789;47.678;9.158;2023-10-31T20:18:50;2.43;;;0.63;;
13432;SDS011;6789;47.678;9.158;2023-10-31T20:23:43;0.60;;;0.50;;
13432;SDS011;6789;47.678;9.158;2023-10-31T20:28:35;1.37;;;0.50;;
13432;SDS011;6789;47.678;9.158;2023-10-31T20:33:30;2.53;;;0.50;;
13432;SDS011;6789;47.678;9.158;2023-10-31T20:38:22;0.50;;;0.47;;
13432;SDS011;6789;47.678;9.158;2023-10-31T20:43:16;3.67;;;0.70;;
13432;SDS011;6789;47.678;9.158;2023-10-31T20:48:09;0.63;;;0.63;;
13432;SDS011;6789;47.678;9.158;2023-10-31T20:53:01;1.27;;;0.67;;
13432;SDS011;6789;47.678;9.158;2023-10-31T20:57:54;1.17;;;0.50;;
13432;SDS011;6789;47.678;9.158;2023-10-31T21:03:17;0.70;;;0.57;;
13432;SDS011;6789;47.678;9.158;2023-10-31T21:08:23;2.23;;;0.50;;
13432;SDS011;6789;47.678;9.158;2023-10-31T21:13:32;1.27;;;0.80;;
13432;SDS011;6789;47.678;9.158;2023-10-31T21:18:40;2.13;;;0.50;;
13432;SDS011;6789;47.678;9.158;2023-10-31T21:23:56;2.50;;;1.10;;
13432;SDS011;6789;47.678;9.158;2023-10-31T21:28:56;3.17;;;0.83;;
13432;SDS011;6789;47.678;9.158;2023-10-31T21:34:03;2.87;;;0.53;;
13432;SDS011;6789;47.678;9.158;2023-10-31T21:39:22;1.93;;;0.70;;
13432;SDS011;6789;47.678;9.158;2023-10-31T21:44:39;2.70;;;0.53;;
13432;SDS011;6789;47.678;9.158;2023-10-31T21:49:45;2.93;;;0.80;;
13432;SDS011;6789;47.678;9.158;2023-10-31T21:54:44;3.13;;;1.00;;
13432;SDS011;6789;47.678;9.158;2023-10-31T21:59:37;2.40;;;1.00;;
13432;SDS011;6789;47.678;9.158;2023-10-31T22:04:44;1.73;;;0.70;;
13432;SDS011;6789;47.678;9.158;2023-10-31T22:09:51;1.07;;;0.50;;
13432;SDS011;6789;47.678;9.158;2023-10-31T22:14:47;0.60;;;0.40;;
13432;SDS011;6789;47.678;9.158;2023-10-31T22:19:51;0.93;;;0.50;;
13432;SDS011;6789;47.678;9.158;2023-10-31T22:25:08;2.60;;;0.80;;
13432;SDS011;6789;47.678;9.158;2023-10-31T22:30:18;1.40;;;0.70;;
13432;SDS011;6789;47.678;9.158;2023-10-31T22:35:27;1.43;;;0.90;;
13432;SDS011;6789;47.678;9.158;2023-10-31T22:40:27;3.37;;;1.20;;
13432;SDS011;6789;47.678;9.158;2023-10-31T22:45:33;3.00;;;0.90;;
13432;SDS011;6789;47.678;9.158;2023-10-31T22:50:40;1.43;;;0.83;;
13432;SDS011;6789;47.678;9.158;2023-10-31T22:55:51;1.03;;;0.80;;
13432;SDS011;6789;47.678;9.158;2023-10-31T23:01:00;0.63;;;0.57;;
13432;SDS011;6789;47.678;9.158;2023-10-31T23:06:04;2.80;;;1.00;;
13432;SDS011;6789;47.678;9.158;2023-10-31T23:11:18;1.47;;;0.87;;
13432;SDS011;6789;47.678;9.158;2023-10-31T23:16:14;1.80;;;1.27;;
13432;SDS011;6789;47.678;9.158;2023-10-31T23:21:09;3.37;;;1.00;;
13432;SDS011;6789;47.678;9.158;2023-10-31T23:26:20;1.27;;;0.93;;
13432;SDS011;6789;47.678;9.158;2023-10-31T23:31:26;1.23;;;0.77;;
13432;SDS011;6789;47.678;9.158;2023-10-31T23:36:32;1.03;;;0.90;;
13432;SDS011;6789;47.678;9.158;2023-10-31T23:41:40;1.17;;;0.57;;
13432;SDS011;6789;47.678;9.158;2023-10-31T23:47:07;1.20;;;0.60;;
13432;SDS011;6789;47.678;9.158;2023-10-31T23:52:17;1.20;;;0.60;;
13432;SDS011;6789;47.678;9.158;2023-10-31T23:57:36;8.37;;;2.77;;
